San Lorenzo, CA

1:51 AM PST on February 13, 2016 (GMT -0800)
Cherryland | | Change Station
CLOSE
Current Station
Personal Weather Station
Location: Hayward, CA
Elevation: 62 ft
Nearby Weather Stations

Elev 62 ft 37.67 °N, 122.10 °W | Updated 13 minutes ago

Overcast
Overcast
52.5 °F
Feels Like 52.5 °F
N
1.1
Wind Variable Wind from East

Today
High -- | Low -- °F
--% Chance of Precip.
Yesterday
High -- | Low -- °F
Precip. -- in
Pressure 30.22 in
Visibility 10.0 miles
Clouds Overcast 300 ft
Dew Point 52 °F
Humidity 99%
Rainfall 0.00 in
Snow Depth Not available.
7:00 AM 5:45 PM
Waxing Crescent, 29% visible
SPECI KHWD 130901Z 00000KT 10SM OVC003 13/11 A3022 RMK AO2 T01280111
Pressure 30.22 in
Visibility 10.0 miles
Clouds Overcast 300 ft
Dew Point 52 °F
Humidity 99%
Rainfall 0.00 in
Snow Depth Not available.
7:00 AM 5:45 PM
Waxing Crescent, 29% visible
SPECI KHWD 130901Z 00000KT 10SM OVC003 13/11 A3022 RMK AO2 T01280111

10-Day Weather Forecast

Almanac

Astronomy

Feb. 13, 2016 Rise Set
Actual Time
Civil Twilight
Nautical Twilight
Astronomical Twilight
Moon
Length of Visible Light
Length of Day
Tomorrow will be .
, % of the Moon is Illuminated

Today's Extremes

State Highs State Lows

Community

WunderPhotos

Upload Photos

1,892,536 photos uploaded!

WunderBlog® & News

Nearby

Air Quality

  Air Quality AQ Index Pollutant
Not available.

Snow Depth

Station Depth Elevation

Earthquake Activity

City Distance Mag. Time & Date
Minimum magnitude displayed is 2.5.

Coastal Water Temperatures

Place Temperature

Stations

Nearby Weather Stations

Station Location Temp. Windchill Dew Point Humidity Wind Precip. Elev Updated Type
                   

Watches & Warnings

There are currently no watches in effect.